Time;durP1;ratioP1;P1;durP2;ratioP2;P2;SDS_P1;SDS_P2;PMS_P1;PMS_P2;Temp;Humidity;BMP_temperature;BMP_pressure;BME280_temperature;BME280_humidity;BME280_pressure;Samples;Min_cycle;Max_cycle;Signal;HPM_P1;HPM_P2
2022/08/21 00:00:15;;;;;;;13.60;8.18;;;14.70;99.90;;;;;;5020048;28;20570;-49
2022/08/21 00:02:49;;;;;;;11.10;8.85;;;14.70;99.90;;;;;;5018893;28;20060;-49
2022/08/21 00:05:17;;;;;;;9.95;8.02;;;14.70;99.90;;;;;;5042723;28;20451;-48
2022/08/21 00:07:43;;;;;;;12.15;8.32;;;14.70;99.90;;;;;;5041275;28;20136;-54
2022/08/21 00:10:10;;;;;;;13.43;8.68;;;14.70;99.90;;;;;;5024345;28;20048;-48
2022/08/21 00:12:37;;;;;;;16.42;9.60;;;14.70;99.90;;;;;;5023456;28;20059;-50
2022/08/21 00:15:07;;;;;;;14.02;8.95;;;14.70;99.90;;;;;;5024322;28;20142;-49
2022/08/21 00:17:33;;;;;;;14.35;9.20;;;14.60;99.90;;;;;;5043027;28;20229;-53
2022/08/21 00:19:59;;;;;;;13.40;8.68;;;14.60;99.90;;;;;;5041703;28;20100;-50
2022/08/21 00:22:25;;;;;;;10.32;8.88;;;14.60;99.90;;;;;;5041521;28;20052;-51
2022/08/21 00:24:51;;;;;;;13.32;9.93;;;14.60;99.90;;;;;;5023995;28;20037;-48
2022/08/21 00:27:17;;;;;;;13.18;9.90;;;14.60;99.90;;;;;;5042610;28;20055;-53
2022/08/21 00:29:43;;;;;;;10.52;9.43;;;14.50;99.90;;;;;;5042449;28;20665;-53
2022/08/21 00:32:09;;;;;;;16.98;10.77;;;14.50;99.90;;;;;;5023824;28;20067;-52
2022/08/21 00:34:35;;;;;;;12.88;10.45;;;14.50;99.90;;;;;;5041971;28;20136;-56
2022/08/21 00:37:01;;;;;;;14.55;10.05;;;14.50;99.90;;;;;;5024696;28;20067;-52
2022/08/21 00:39:27;;;;;;;13.73;8.85;;;14.50;99.90;;;;;;5042510;28;20106;-49
2022/08/21 00:41:53;;;;;;;10.90;8.98;;;14.50;99.90;;;;;;5042203;28;20160;-48
2022/08/21 00:44:19;;;;;;;9.57;8.25;;;14.50;99.90;;;;;;5042237;28;20555;-52
2022/08/21 00:46:46;;;;;;;15.93;10.07;;;14.50;99.90;;;;;;5042039;28;20041;-49
2022/08/21 00:49:13;;;;;;;10.25;9.07;;;14.50;99.90;;;;;;5024403;28;20198;-49
2022/08/21 00:51:44;;;;;;;11.43;9.00;;;14.50;99.90;;;;;;5034489;28;20057;-51
2022/08/21 00:54:13;;;;;;;13.15;10.05;;;14.50;99.90;;;;;;5038994;28;20077;-52
2022/08/21 00:56:39;;;;;;;11.07;9.55;;;14.50;99.90;;;;;;5023160;28;20163;-48
2022/08/21 00:59:07;;;;;;;11.90;9.02;;;14.40;99.90;;;;;;5043037;28;20480;-48
2022/08/21 01:01:33;;;;;;;13.10;9.35;;;14.40;99.90;;;;;;5042585;28;20049;-48
2022/08/21 01:03:59;;;;;;;14.63;9.52;;;14.40;99.90;;;;;;5042665;28;20033;-48
2022/08/21 01:06:25;;;;;;;11.43;9.23;;;14.40;99.90;;;;;;5042450;28;20061;-50
2022/08/21 01:08:52;;;;;;;14.27;9.93;;;14.40;99.90;;;;;;5042975;28;20041;-49
2022/08/21 01:11:19;;;;;;;14.05;9.88;;;14.40;99.90;;;;;;5043889;28;20119;-48
2022/08/21 01:13:46;;;;;;;14.60;8.27;;;14.40;99.90;;;;;;5026697;28;20487;-50
2022/08/21 01:16:15;;;;;;;12.95;8.77;;;14.40;99.90;;;;;;5046446;28;20491;-47
2022/08/21 01:18:44;;;;;;;13.98;10.43;;;14.30;99.90;;;;;;5046267;28;20044;-51
2022/08/21 01:21:17;;;;;;;9.80;8.60;;;14.30;99.90;;;;;;5046049;28;20053;-50
2022/08/21 01:23:46;;;;;;;;;;;14.30;99.90;;;;;;5046147;28;20082;-52
2022/08/21 01:26:15;;;;;;;11.82;8.80;;;14.30;99.90;;;;;;5044162;28;19971;-49
2022/08/21 01:28:56;;;;;;;10.07;8.75;;;14.20;99.90;;;;;;5045786;28;20565;-51
2022/08/21 01:31:25;;;;;;;10.52;8.45;;;14.20;99.90;;;;;;5039921;28;20407;-50
2022/08/21 01:33:51;;;;;;;11.13;8.27;;;14.20;99.90;;;;;;5044947;28;20064;-49
2022/08/21 01:36:18;;;;;;;12.13;8.98;;;14.20;99.90;;;;;;5043930;28;20131;-52
2022/08/21 01:38:43;;;;;;;10.43;8.50;;;14.10;99.90;;;;;;5040242;28;20218;-49
2022/08/21 01:41:10;;;;;;;10.75;8.20;;;14.10;99.90;;;;;;5026552;28;20539;-49
2022/08/21 01:43:36;;;;;;;14.98;9.48;;;14.00;99.90;;;;;;5026974;28;20044;-51
2022/08/21 01:46:03;;;;;;;11.52;9.45;;;14.00;99.90;;;;;;5045635;28;20118;-48
2022/08/21 01:48:30;;;;;;;10.52;9.43;;;14.00;99.90;;;;;;5044463;28;20450;-51
2022/08/21 01:50:56;;;;;;;11.00;9.27;;;13.90;99.90;;;;;;5020495;28;20057;-51
2022/08/21 01:53:23;;;;;;;11.70;9.60;;;14.00;99.90;;;;;;5044998;28;20422;-51
2022/08/21 01:55:49;;;;;;;11.88;9.30;;;14.00;99.90;;;;;;5045426;28;20041;-50
2022/08/21 01:58:15;;;;;;;13.48;10.50;;;13.90;99.90;;;;;;5027305;28;20064;-49
2022/08/21 02:00:41;;;;;;;14.50;9.93;;;13.90;99.90;;;;;;5048830;28;20107;-50
2022/08/21 02:03:07;;;;;;;10.25;9.23;;;13.90;99.90;;;;;;5044690;28;20049;-50
2022/08/21 02:05:33;;;;;;;10.27;8.98;;;14.00;99.90;;;;;;5044371;28;20049;-49
2022/08/21 02:07:59;;;;;;;13.10;9.27;;;13.90;99.90;;;;;;5044138;28;20546;-48
2022/08/21 02:10:28;;;;;;;14.63;10.20;;;13.90;99.90;;;;;;5044461;28;20084;-51
2022/08/21 02:12:55;;;;;;;14.15;10.40;;;14.00;99.90;;;;;;5044610;28;20064;-49
2022/08/21 02:15:21;;;;;;;13.77;10.15;;;14.00;99.90;;;;;;5044517;28;20813;-48
2022/08/21 02:17:53;;;;;;;14.38;10.13;;;14.00;99.90;;;;;;5043440;28;20044;-49
2022/08/21 02:20:27;;;;;;;13.80;9.48;;;14.00;99.90;;;;;;5026428;28;20053;-48
2022/08/21 02:22:54;;;;;;;13.07;9.35;;;14.00;99.90;;;;;;5043512;28;20059;-49
2022/08/21 02:25:22;;;;;;;12.88;9.35;;;14.00;99.90;;;;;;5006288;28;20057;-50
2022/08/21 02:27:49;;;;;;;14.90;10.75;;;14.00;99.90;;;;;;5042415;28;20060;-49
2022/08/21 02:30:23;;;;;;;12.60;10.07;;;14.00;99.90;;;;;;5044388;28;20827;-49
2022/08/21 02:32:49;;;;;;;15.13;9.60;;;14.00;99.90;;;;;;5043675;28;20559;-50
2022/08/21 02:35:15;;;;;;;11.40;9.02;;;14.00;99.90;;;;;;5026214;28;20130;-52
2022/08/21 02:37:49;;;;;;;17.77;9.18;;;14.00;99.90;;;;;;5044195;28;20095;-48
2022/08/21 02:40:17;;;;;;;15.57;10.13;;;14.00;99.90;;;;;;5025255;28;20055;-48
2022/08/21 02:42:44;;;;;;;16.35;9.52;;;14.00;99.90;;;;;;5026232;28;20044;-49
2022/08/21 02:45:11;;;;;;;15.73;10.02;;;14.00;99.90;;;;;;5026087;28;20128;-50
2022/08/21 02:47:37;;;;;;;14.52;10.32;;;14.10;99.90;;;;;;5043682;28;20506;-48
2022/08/21 02:50:05;;;;;;;12.30;9.15;;;14.00;99.90;;;;;;5024244;28;20053;-49
2022/08/21 02:52:31;;;;;;;15.40;9.07;;;14.00;99.90;;;;;;5039635;28;20420;-48
2022/08/21 02:54:57;;;;;;;14.02;9.38;;;14.00;99.90;;;;;;5044826;28;20059;-48
2022/08/21 02:57:24;;;;;;;14.52;9.13;;;14.00;99.90;;;;;;5025947;28;20061;-49
2022/08/21 02:59:50;;;;;;;12.45;9.18;;;14.00;99.90;;;;;;5042427;28;20056;-50
2022/08/21 03:02:16;;;;;;;19.08;10.07;;;14.00;99.90;;;;;;5043505;28;20095;-50
2022/08/21 03:04:42;;;;;;;20.23;9.93;;;14.10;99.90;;;;;;5044094;28;20080;-50
2022/08/21 03:07:08;;;;;;;14.40;8.70;;;14.00;99.90;;;;;;5043283;28;20080;-50
2022/08/21 03:09:34;;;;;;;13.50;8.88;;;14.00;99.90;;;;;;5043523;28;20049;-50
2022/08/21 03:12:00;;;;;;;14.15;9.45;;;14.00;99.90;;;;;;5041920;28;20076;-52
2022/08/21 03:14:26;;;;;;;12.52;8.93;;;13.90;99.90;;;;;;5044137;28;20091;-49
2022/08/21 03:16:52;;;;;;;15.30;9.85;;;13.90;99.90;;;;;;5042539;28;20037;-51
2022/08/21 03:19:18;;;;;;;12.93;8.73;;;13.90;99.90;;;;;;5039027;28;20052;-50
2022/08/21 03:21:44;;;;;;;11.25;8.88;;;13.90;99.90;;;;;;5024911;28;20143;-48
2022/08/21 03:24:10;;;;;;;13.45;9.35;;;13.90;99.90;;;;;;5025244;28;20535;-48
2022/08/21 03:26:36;;;;;;;15.73;9.63;;;13.90;99.90;;;;;;5044103;28;20415;-49
2022/08/21 03:29:02;;;;;;;15.75;9.05;;;13.90;99.90;;;;;;5043996;28;20083;-48
2022/08/21 03:31:30;;;;;;;14.05;8.55;;;13.90;99.90;;;;;;5024667;28;20089;-49
2022/08/21 03:33:57;;;;;;;13.20;9.02;;;13.90;99.90;;;;;;5028705;28;20164;-48
2022/08/21 03:36:23;;;;;;;15.45;9.32;;;13.90;99.90;;;;;;5023087;28;20572;-49
2022/08/21 03:38:50;;;;;;;13.93;9.95;;;13.90;99.90;;;;;;5039715;28;20053;-47
2022/08/21 03:41:16;;;;;;;10.00;8.75;;;13.90;99.90;;;;;;5024714;28;20049;-49
2022/08/21 03:43:42;;;;;;;12.52;9.70;;;13.90;99.90;;;;;;5042768;28;20045;-49
2022/08/21 03:46:08;;;;;;;13.68;9.60;;;13.90;99.90;;;;;;5043234;28;20063;-47
2022/08/21 03:48:35;;;;;;;13.55;9.13;;;13.90;99.90;;;;;;5042810;28;20079;-49
2022/08/21 03:51:01;;;;;;;16.08;9.98;;;13.90;99.90;;;;;;5035892;28;20152;-49
2022/08/21 03:53:27;;;;;;;12.18;9.57;;;13.90;99.90;;;;;;5041674;28;20055;-48
2022/08/21 03:55:53;;;;;;;12.70;9.32;;;13.80;99.90;;;;;;5043185;28;20064;-47
2022/08/21 03:58:24;;;;;;;15.93;9.10;;;13.80;99.90;;;;;;5042058;28;20480;-49
2022/08/21 04:00:53;;;;;;;13.93;10.57;;;13.80;99.90;;;;;;5042419;28;20062;-48
2022/08/21 04:03:21;;;;;;;16.83;10.38;;;13.80;99.90;;;;;;5042453;28;20159;-48
2022/08/21 04:05:47;;;;;;;13.98;9.80;;;13.80;99.90;;;;;;5042533;28;20083;-52
2022/08/21 04:08:15;;;;;;;14.23;10.43;;;13.80;99.90;;;;;;5039171;28;20051;-50
2022/08/21 04:10:42;;;;;;;15.57;10.45;;;13.80;99.90;;;;;;5040348;28;20048;-50
2022/08/21 04:13:09;;;;;;;18.85;10.90;;;13.80;99.90;;;;;;5041993;28;20069;-47
2022/08/21 04:15:35;;;;;;;14.32;10.50;;;13.80;99.90;;;;;;5042088;28;20049;-48
2022/08/21 04:18:02;;;;;;;15.43;10.23;;;13.80;99.90;;;;;;5042419;28;20056;-49
2022/08/21 04:20:28;;;;;;;15.48;11.50;;;13.70;99.90;;;;;;5042836;28;20052;-47
2022/08/21 04:22:54;;;;;;;16.42;10.18;;;13.80;99.90;;;;;;5042547;28;20557;-47
2022/08/21 04:25:22;;;;;;;16.02;10.23;;;13.80;99.90;;;;;;5042547;28;20586;-49
2022/08/21 04:27:48;;;;;;;14.88;9.75;;;13.80;99.90;;;;;;5042218;28;20124;-50
2022/08/21 04:30:15;;;;;;;13.52;10.25;;;13.80;99.90;;;;;;5024613;28;20407;-47
2022/08/21 04:32:47;;;;;;;13.43;9.98;;;13.80;99.90;;;;;;5042678;28;20658;-48
2022/08/21 04:35:14;;;;;;;18.58;10.75;;;13.80;99.90;;;;;;5042806;28;20053;-48
2022/08/21 04:37:40;;;;;;;16.23;10.02;;;13.90;99.90;;;;;;5036785;28;20507;-48
2022/08/21 04:40:14;;;;;;;16.27;10.35;;;13.90;99.90;;;;;;5042264;28;20048;-49
2022/08/21 04:42:52;;;;;;;14.05;10.45;;;13.90;99.90;;;;;;5042032;28;20060;-49
2022/08/21 04:45:28;;;;;;;15.52;10.85;;;14.00;99.90;;;;;;5024367;28;20415;-48
2022/08/21 04:47:59;;;;;;;14.75;9.73;;;14.00;99.90;;;;;;5045608;28;20096;-49
2022/08/21 04:50:30;;;;;;;14.75;10.85;;;14.00;99.90;;;;;;5022912;28;20085;-47
2022/08/21 04:52:57;;;;;;;14.52;10.32;;;14.00;99.90;;;;;;5044502;28;20118;-50
2022/08/21 04:55:24;;;;;;;16.02;10.20;;;14.10;99.90;;;;;;5046050;28;20053;-46
2022/08/21 04:57:53;;;;;;;15.40;9.57;;;14.10;99.90;;;;;;5045391;28;20088;-47
2022/08/21 05:00:20;;;;;;;14.05;9.48;;;14.20;99.90;;;;;;5028253;28;20124;-49
2022/08/21 05:02:48;;;;;;;13.02;9.60;;;14.20;99.90;;;;;;5045047;28;20044;-51
2022/08/21 05:05:15;;;;;;;15.35;10.00;;;14.20;99.90;;;;;;5024733;28;20467;-48
2022/08/21 05:07:44;;;;;;;15.25;9.35;;;14.30;99.90;;;;;;5045298;28;20056;-53
2022/08/21 05:10:10;;;;;;;18.15;10.13;;;14.40;99.90;;;;;;5028017;28;20546;-50
2022/08/21 05:12:36;;;;;;;15.05;9.93;;;14.50;99.90;;;;;;5024205;28;20864;-51
2022/08/21 05:15:03;;;;;;;17.08;9.52;;;14.60;99.90;;;;;;5046019;28;20060;-51
2022/08/21 05:17:29;;;;;;;13.85;9.38;;;14.70;99.90;;;;;;5041050;28;20041;-49
2022/08/21 05:19:57;;;;;;;16.38;9.80;;;14.80;99.90;;;;;;5045199;28;20755;-50
2022/08/21 05:22:24;;;;;;;15.77;9.35;;;15.30;99.90;;;;;;5045181;28;20052;-51
2022/08/21 05:24:50;;;;;;;14.65;8.90;;;16.40;99.90;;;;;;5027669;28;20052;-50
2022/08/21 05:27:16;;;;;;;14.20;8.10;;;17.40;99.90;;;;;;5045203;28;20040;-49
2022/08/21 05:29:43;;;;;;;12.68;7.63;;;18.40;99.90;;;;;;5045122;28;20100;-47
2022/08/21 05:32:13;;;;;;;12.02;7.18;;;19.20;99.90;;;;;;5045507;28;20045;-49
2022/08/21 05:34:39;;;;;;;10.80;6.70;;;19.90;99.90;;;;;;5045252;28;20701;-49
2022/08/21 05:37:05;;;;;;;9.75;6.72;;;20.50;99.90;;;;;;5044336;28;20079;-49
2022/08/21 05:39:32;;;;;;;10.43;6.05;;;21.00;99.90;;;;;;5044218;28;20057;-49
2022/08/21 05:41:58;;;;;;;14.35;6.45;;;21.50;99.90;;;;;;5045020;28;20052;-48
2022/08/21 05:44:24;;;;;;;10.55;7.00;;;21.90;99.90;;;;;;5045343;28;20125;-49
2022/08/21 05:46:50;;;;;;;11.10;5.80;;;22.30;99.90;;;;;;5045015;28;20123;-51
2022/08/21 05:49:16;;;;;;;10.75;6.55;;;22.70;99.90;;;;;;5027610;28;20049;-52
2022/08/21 05:51:42;;;;;;;9.70;6.45;;;23.20;99.90;;;;;;5031401;28;20065;-51
2022/08/21 05:54:08;;;;;;;9.65;6.82;;;23.60;99.90;;;;;;5045519;28;20053;-51
2022/08/21 05:56:34;;;;;;;9.82;6.25;;;23.90;99.90;;;;;;5025341;28;20055;-51
2022/08/21 05:59:00;;;;;;;12.20;7.18;;;24.20;99.90;;;;;;5045296;28;20053;-48
2022/08/21 06:01:26;;;;;;;11.63;5.88;;;24.70;99.90;;;;;;5044913;28;20115;-48
2022/08/21 06:03:52;;;;;;;9.13;6.05;;;24.90;99.90;;;;;;5044891;28;20044;-49
2022/08/21 06:06:18;;;;;;;12.68;5.75;;;25.00;99.90;;;;;;5026664;28;20114;-47
2022/08/21 06:08:45;;;;;;;11.85;5.88;;;25.40;99.50;;;;;;5026771;28;20454;-46
2022/08/21 06:11:11;;;;;;;9.13;5.63;;;25.60;99.70;;;;;;5043858;28;20446;-49
2022/08/21 06:13:38;;;;;;;9.18;5.60;;;25.90;98.80;;;;;;5044097;28;20155;-48
2022/08/21 06:16:13;;;;;;;8.90;5.90;;;26.20;97.80;;;;;;5044332;28;20053;-47
2022/08/21 06:18:40;;;;;;;11.27;5.35;;;26.60;97.80;;;;;;5044812;28;20134;-49
2022/08/21 06:21:07;;;;;;;10.85;5.05;;;26.90;96.90;;;;;;5044575;28;20083;-49
2022/08/21 06:23:33;;;;;;;8.13;5.10;;;27.20;96.80;;;;;;5044952;28;20049;-48
2022/08/21 06:26:01;;;;;;;13.35;5.57;;;27.00;96.10;;;;;;5043505;28;20060;-52
2022/08/21 06:28:27;;;;;;;10.15;5.68;;;27.40;95.80;;;;;;5044739;28;20086;-49
2022/08/21 06:30:54;;;;;;;9.88;5.70;;;27.40;95.40;;;;;;5039316;28;20581;-54
2022/08/21 06:33:20;;;;;;;10.50;5.18;;;27.60;95.20;;;;;;5043742;28;20110;-53
2022/08/21 06:35:46;;;;;;;8.60;5.13;;;27.80;95.00;;;;;;5044142;28;20049;-51
2022/08/21 06:38:12;;;;;;;9.90;5.05;;;27.90;94.40;;;;;;5043800;28;20082;-50
2022/08/21 06:40:39;;;;;;;10.23;4.70;;;28.00;94.70;;;;;;5044099;28;20555;-49
2022/08/21 06:43:08;;;;;;;9.90;5.60;;;28.20;94.60;;;;;;5044405;28;20140;-50
2022/08/21 06:45:35;;;;;;;9.63;4.82;;;28.10;94.50;;;;;;5025583;28;20059;-48
2022/08/21 06:48:01;;;;;;;14.00;5.00;;;27.90;94.70;;;;;;5043779;28;20049;-52
2022/08/21 06:50:28;;;;;;;9.10;5.25;;;27.50;94.70;;;;;;5038729;28;20096;-48
2022/08/21 06:53:20;;;;;;;10.27;5.30;;;26.20;95.60;;;;;;5041549;28;20049;-51
2022/08/21 06:55:47;;;;;;;10.93;5.38;;;24.60;97.50;;;;;;4946828;28;20059;-52
2022/08/21 06:58:14;;;;;;;8.80;5.07;;;23.40;98.80;;;;;;4932883;29;20063;-49
2022/08/21 07:00:45;;;;;;;10.40;5.32;;;22.80;99.90;;;;;;4949229;28;20577;-51
2022/08/21 07:03:29;;;;;;;8.63;5.35;;;22.20;99.90;;;;;;4930101;28;20098;-53
2022/08/21 07:05:58;;;;;;;9.82;5.30;;;22.00;99.90;;;;;;4943722;28;20062;-54
2022/08/21 07:08:26;;;;;;;12.07;5.30;;;21.90;99.90;;;;;;4946782;28;20051;-51
2022/08/21 07:10:56;;;;;;;9.07;4.80;;;22.30;99.90;;;;;;4942192;28;20043;-51
2022/08/21 07:13:22;;;;;;;10.48;4.93;;;22.70;99.90;;;;;;4939434;28;20073;-53
2022/08/21 07:15:48;;;;;;;11.15;4.82;;;23.20;99.90;;;;;;4943601;28;20086;-52
2022/08/21 07:18:14;;;;;;;10.75;5.35;;;23.30;99.90;;;;;;4942694;28;20130;-53
2022/08/21 07:20:41;;;;;;;8.25;5.15;;;23.50;99.90;;;;;;4949179;28;20155;-53
2022/08/21 07:23:34;;;;;;;10.00;4.82;;;23.80;99.90;;;;;;4948384;28;20053;-50
2022/08/21 07:26:01;;;;;;;11.15;4.88;;;23.70;99.90;;;;;;4945073;28;20937;-52
2022/08/21 07:28:28;;;;;;;10.35;5.05;;;23.50;99.90;;;;;;4947974;28;20133;-51
2022/08/21 07:30:56;;;;;;;12.70;5.38;;;23.60;99.90;;;;;;4947386;28;20051;-52
2022/08/21 07:33:23;;;;;;;8.25;4.32;;;23.40;99.90;;;;;;5024714;28;20060;-47
2022/08/21 07:35:50;;;;;;;9.52;5.32;;;23.20;99.90;;;;;;5025619;28;20153;-51
2022/08/21 07:38:16;;;;;;;8.27;4.95;;;23.20;99.90;;;;;;5039339;28;20060;-51
2022/08/21 07:40:42;;;;;;;9.05;5.00;;;23.10;99.90;;;;;;5042437;28;20137;-51
2022/08/21 07:43:08;;;;;;;7.68;4.32;;;23.00;99.90;;;;;;5042265;28;20056;-50
2022/08/21 07:45:35;;;;;;;13.35;5.40;;;23.30;99.90;;;;;;5042884;28;20126;-52
2022/08/21 07:48:00;;;;;;;11.02;5.38;;;23.40;99.90;;;;;;5043431;28;20096;-51
2022/08/21 07:50:26;;;;;;;11.48;4.53;;;23.40;99.90;;;;;;5037419;28;20132;-49
2022/08/21 07:52:54;;;;;;;9.50;4.82;;;23.50;99.90;;;;;;5018888;28;20140;-51
2022/08/21 07:55:21;;;;;;;13.18;4.75;;;23.60;99.90;;;;;;5023197;28;20174;-50
2022/08/21 07:57:48;;;;;;;9.65;4.10;;;23.60;99.90;;;;;;5022608;28;20569;-50
2022/08/21 08:00:28;;;;;;;8.10;4.80;;;23.60;99.90;;;;;;5021834;28;20037;-49
2022/08/21 08:02:55;;;;;;;10.60;4.75;;;23.70;99.90;;;;;;5017249;28;20046;-51
2022/08/21 08:05:24;;;;;;;10.70;4.60;;;23.80;99.90;;;;;;5022877;28;20709;-50
2022/08/21 08:07:51;;;;;;;14.90;4.75;;;23.80;99.90;;;;;;5022796;28;20424;-53
2022/08/21 08:10:17;;;;;;;9.60;4.55;;;23.90;99.90;;;;;;5018184;28;20056;-50
2022/08/21 08:12:45;;;;;;;14.90;5.55;;;23.90;99.90;;;;;;5022405;28;20052;-49
2022/08/21 08:15:19;;;;;;;11.23;5.32;;;23.80;99.90;;;;;;5016287;28;20516;-53
2022/08/21 08:17:44;;;;;;;9.27;4.65;;;24.10;99.90;;;;;;5022563;28;20049;-53
2022/08/21 08:20:12;;;;;;;11.68;5.00;;;24.10;99.90;;;;;;5021000;28;20126;-51
2022/08/21 08:22:41;;;;;;;31.75;5.57;;;24.10;99.90;;;;;;5022300;28;20053;-53
2022/08/21 08:25:08;;;;;;;14.38;5.53;;;24.20;99.90;;;;;;5021569;28;20092;-54
2022/08/21 08:27:34;;;;;;;13.35;4.95;;;24.40;99.90;;;;;;5022580;28;20484;-54
2022/08/21 08:30:01;;;;;;;12.52;4.93;;;24.50;99.90;;;;;;5023321;28;20068;-54
2022/08/21 08:32:27;;;;;;;13.93;4.90;;;24.70;99.90;;;;;;5022390;28;20203;-52
2022/08/21 08:34:53;;;;;;;12.20;4.63;;;24.60;99.90;;;;;;5021862;28;20140;-53
2022/08/21 08:37:20;;;;;;;9.20;4.50;;;24.30;99.90;;;;;;5022803;28;20042;-52
2022/08/21 08:39:47;;;;;;;13.18;4.72;;;24.10;99.90;;;;;;5023391;28;20041;-55
2022/08/21 08:42:14;;;;;;;12.02;4.97;;;23.90;99.90;;;;;;5022212;28;20072;-53
2022/08/21 08:44:45;;;;;;;11.52;4.28;;;23.90;99.90;;;;;;5017582;28;20037;-53
2022/08/21 08:47:17;;;;;;;13.15;4.03;;;24.00;99.90;;;;;;5020602;28;20042;-55
2022/08/21 08:49:46;;;;;;;11.65;4.63;;;24.10;99.90;;;;;;5001618;28;20088;-50
2022/08/21 08:52:30;;;;;;;13.02;4.50;;;24.30;99.90;;;;;;5013352;28;20070;-53
2022/08/21 08:55:09;;;;;;;12.60;4.60;;;24.40;99.90;;;;;;5020322;28;20053;-53
2022/08/21 08:57:37;;;;;;;12.05;4.18;;;24.60;99.90;;;;;;5022696;28;20057;-55
2022/08/21 09:00:10;;;;;;;10.63;4.38;;;24.90;99.90;;;;;;5022500;28;20049;-53
2022/08/21 09:02:41;;;;;;;11.77;4.20;;;25.00;99.90;;;;;;5012855;28;20054;-53
2022/08/21 09:05:15;;;;;;;13.95;4.90;;;25.00;99.90;;;;;;5019558;28;20057;-54
2022/08/21 09:07:57;;;;;;;18.42;5.47;;;25.20;99.90;;;;;;5011670;28;20100;-51
2022/08/21 09:11:12;;;;;;;11.00;4.30;;;25.20;99.90;;;;;;5022282;28;20825;-53
2022/08/21 09:13:37;;;;;;;13.57;4.25;;;25.10;99.90;;;;;;4967505;28;20042;-53
2022/08/21 09:16:16;;;;;;;12.50;4.18;;;25.10;99.90;;;;;;4959833;28;20956;-55
2022/08/21 09:19:00;;;;;;;10.85;3.83;;;25.00;99.90;;;;;;4956303;28;20059;-54
2022/08/21 09:21:41;;;;;;;13.00;3.83;;;25.20;99.90;;;;;;4968793;28;20676;-54
2022/08/21 09:24:35;;;;;;;15.00;4.35;;;25.40;99.90;;;;;;5022079;28;20104;-54
2022/08/21 09:27:07;;;;;;;8.23;3.53;;;25.40;99.90;;;;;;5021975;28;20049;-53
2022/08/21 09:29:37;;;;;;;13.60;4.53;;;25.40;99.90;;;;;;5022351;28;20045;-54
2022/08/21 09:32:25;;;;;;;14.15;4.25;;;25.60;99.90;;;;;;5023983;28;20049;-54
2022/08/21 09:35:04;;;;;;;11.43;3.70;;;25.80;99.90;;;;;;5025746;28;20060;-55
2022/08/21 09:37:34;;;;;;;12.43;3.50;;;25.80;99.90;;;;;;5019033;28;20570;-53
2022/08/21 09:40:15;;;;;;;12.02;4.07;;;25.70;99.90;;;;;;5024012;28;20068;-55
2022/08/21 09:42:41;;;;;;;9.95;3.50;;;25.50;99.90;;;;;;5023833;28;20451;-54
2022/08/21 09:45:17;;;;;;;10.68;3.45;;;25.10;99.90;;;;;;5024456;28;20053;-56
2022/08/21 09:47:45;;;;;;;12.55;4.47;;;25.10;99.90;;;;;;5023857;28;20100;-53
2022/08/21 09:50:24;;;;;;;16.20;4.68;;;25.20;99.90;;;;;;5021167;28;20230;-54
2022/08/21 09:52:55;;;;;;;11.05;3.40;;;25.30;99.90;;;;;;5023649;28;20041;-54
2022/08/21 09:58:38;;;;;;;10.88;4.20;;;25.60;99.90;;;;;;4961627;28;20055;-56
2022/08/21 10:01:06;;;;;;;10.80;3.30;;;25.50;99.90;;;;;;4962912;28;20073;-55
2022/08/21 10:03:33;;;;;;;10.32;3.63;;;25.40;99.90;;;;;;4962943;28;20067;-56
2022/08/21 10:06:08;;;;;;;11.35;4.70;;;25.40;99.90;;;;;;4963466;28;20051;-54
2022/08/21 10:08:36;;;;;;;8.57;3.22;;;25.50;99.90;;;;;;4962688;28;20055;-53
2022/08/21 10:11:10;;;;;;;6.72;2.90;;;25.80;99.60;;;;;;4962976;28;20057;-54
2022/08/21 10:13:58;;;;;;;8.82;3.30;;;26.10;98.70;;;;;;4947403;28;20066;-55
2022/08/21 10:16:52;;;;;;;10.07;3.03;;;26.40;99.10;;;;;;4962715;28;20061;-55
2022/08/21 10:19:40;;;;;;;14.93;3.97;;;26.40;99.40;;;;;;4957163;28;20782;-55
2022/08/21 10:22:24;;;;;;;13.52;4.22;;;26.10;98.10;;;;;;4944223;28;20062;-55
2022/08/21 10:25:05;;;;;;;10.55;3.08;;;25.90;98.30;;;;;;4962000;28;20082;-54
2022/08/21 10:27:59;;;;;;;12.50;3.78;;;25.60;97.90;;;;;;4960597;28;20078;-53
2022/08/21 10:30:38;;;;;;;13.85;3.85;;;25.20;99.70;;;;;;4955625;28;20445;-55
2022/08/21 10:33:18;;;;;;;11.07;3.45;;;24.80;99.50;;;;;;4957182;28;20047;-55
2022/08/21 10:35:55;;;;;;;9.75;3.50;;;24.70;99.90;;;;;;5018907;28;20112;-54
2022/08/21 10:38:44;;;;;;;9.52;3.70;;;24.50;99.90;;;;;;5016172;28;20473;-54
2022/08/21 10:41:44;;;;;;;10.40;3.45;;;24.40;99.90;;;;;;5022257;28;20100;-55
2022/08/21 10:44:28;;;;;;;17.15;4.10;;;24.30;99.90;;;;;;5023163;28;20045;-54
2022/08/21 10:47:01;;;;;;;9.90;3.63;;;24.10;99.90;;;;;;5022724;28;20053;-54
2022/08/21 10:49:35;;;;;;;;;;;24.10;99.90;;;;;;5023415;28;20123;-52
2022/08/21 10:52:31;;;;;;;11.27;3.78;;;23.90;99.90;;;;;;5019534;28;19929;-54
2022/08/21 10:55:06;;;;;;;14.23;4.40;;;23.90;99.90;;;;;;5020757;28;20045;-56
2022/08/21 10:58:00;;;;;;;11.15;3.50;;;23.70;99.90;;;;;;5018115;28;20057;-54
2022/08/21 11:00:38;;;;;;;10.95;3.53;;;23.70;99.90;;;;;;5021529;28;20539;-53
2022/08/21 11:03:45;;;;;;;9.63;3.63;;;23.60;99.90;;;;;;5021767;28;20049;-53
2022/08/21 11:06:25;;;;;;;14.75;3.53;;;23.60;99.90;;;;;;4962503;28;20063;-54
2022/08/21 11:09:10;;;;;;;9.98;3.50;;;23.60;99.90;;;;;;4946436;28;20513;-55
2022/08/21 11:12:04;;;;;;;10.40;3.47;;;23.60;99.90;;;;;;4958797;28;20183;-56
2022/08/21 11:14:48;;;;;;;;;;;23.60;99.90;;;;;;4900624;29;20076;-54
2022/08/21 11:17:19;;;;;;;8.45;3.63;;;23.40;99.90;;;;;;4889209;29;19927;-53
2022/08/21 11:19:51;;;;;;;8.00;3.08;;;23.40;99.90;;;;;;4904440;29;20645;-53
2022/08/21 11:22:50;;;;;;;7.97;3.03;;;23.40;99.90;;;;;;4899471;29;20086;-55
2022/08/21 11:25:48;;;;;;;9.32;3.53;;;23.40;99.90;;;;;;4886709;29;20063;-54
2022/08/21 11:28:23;;;;;;;10.63;3.60;;;23.40;99.90;;;;;;4867295;29;20061;-54
2022/08/21 11:31:05;;;;;;;8.90;3.85;;;23.40;99.90;;;;;;4866386;29;20073;-55
2022/08/21 11:34:07;;;;;;;12.43;3.70;;;23.30;99.90;;;;;;4866663;29;20064;-58
2022/08/21 11:36:51;;;;;;;11.07;4.40;;;23.20;99.90;;;;;;4867343;29;20436;-53
2022/08/21 11:39:37;;;;;;;11.63;3.90;;;23.00;99.90;;;;;;4867059;29;20069;-54
2022/08/21 11:42:18;;;;;;;8.98;3.75;;;22.90;99.90;;;;;;4873493;29;20248;-53
2022/08/21 11:44:52;;;;;;;11.27;4.28;;;22.70;99.90;;;;;;4905653;29;20058;-53
2022/08/21 11:47:31;;;;;;;12.65;4.43;;;22.80;99.90;;;;;;4904139;29;20606;-53
2022/08/21 11:50:17;;;;;;;9.18;3.97;;;22.90;99.90;;;;;;4903708;29;20060;-54
2022/08/21 11:52:52;;;;;;;10.57;4.43;;;22.90;99.90;;;;;;4960096;28;20434;-54
2022/08/21 11:55:31;;;;;;;10.07;3.90;;;22.90;99.90;;;;;;4944501;28;20085;-53
2022/08/21 11:58:24;;;;;;;13.07;4.45;;;22.90;99.90;;;;;;4961975;28;20105;-54
2022/08/21 12:00:57;;;;;;;10.98;4.95;;;22.80;99.90;;;;;;4958212;28;20058;-55
2022/08/21 12:03:28;;;;;;;12.88;4.22;;;22.80;99.90;;;;;;4960361;28;20050;-55
2022/08/21 12:06:15;;;;;;;12.25;4.93;;;22.70;99.90;;;;;;4995143;28;20054;-50
2022/08/21 12:08:45;;;;;;;10.65;3.60;;;22.70;99.90;;;;;;4998068;28;20081;-54
2022/08/21 12:11:17;;;;;;;19.65;5.03;;;22.60;99.90;;;;;;5002566;28;20057;-53
2022/08/21 12:14:04;;;;;;;11.57;4.50;;;22.40;99.90;;;;;;5002975;28;20784;-54
2022/08/21 12:16:41;;;;;;;8.70;4.43;;;22.40;99.90;;;;;;5003005;28;20085;-53
2022/08/21 12:19:13;;;;;;;9.20;3.95;;;22.30;99.90;;;;;;4998604;28;20057;-53
2022/08/21 12:22:01;;;;;;;12.47;3.90;;;22.40;99.90;;;;;;5023085;28;20664;-54
2022/08/21 12:24:28;;;;;;;8.90;3.38;;;22.40;99.90;;;;;;5022706;28;20083;-53
2022/08/21 12:27:25;;;;;;;8.52;3.08;;;22.50;99.90;;;;;;5042207;28;20061;-52
2022/08/21 12:30:06;;;;;;;8.93;3.17;;;22.50;99.90;;;;;;5014491;28;20132;-50
2022/08/21 12:32:42;;;;;;;8.20;3.13;;;22.60;99.90;;;;;;5042736;28;20053;-54
2022/08/21 12:35:15;;;;;;;9.00;3.33;;;22.60;99.90;;;;;;5035310;28;20048;-51
2022/08/21 12:37:45;;;;;;;6.45;2.30;;;22.70;99.90;;;;;;5041832;28;20048;-50
2022/08/21 12:40:27;;;;;;;8.95;2.90;;;22.70;99.90;;;;;;5042744;28;20053;-52
2022/08/21 12:43:01;;;;;;;10.40;3.38;;;22.70;99.90;;;;;;5041584;28;20052;-51
2022/08/21 12:45:37;;;;;;;9.50;3.75;;;22.70;99.90;;;;;;5023891;28;20053;-52
2022/08/21 12:48:12;;;;;;;6.40;2.92;;;22.60;99.90;;;;;;5042172;28;20166;-53
2022/08/21 12:50:46;;;;;;;5.38;2.55;;;22.50;99.90;;;;;;5023405;28;20441;-53
2022/08/21 12:53:41;;;;;;;7.78;3.10;;;22.50;99.90;;;;;;5042659;28;20049;-53
2022/08/21 12:56:14;;;;;;;8.80;3.00;;;22.50;99.90;;;;;;5021203;28;20049;-53
2022/08/21 12:58:45;;;;;;;4.88;2.72;;;22.60;99.90;;;;;;5040803;28;20053;-54
2022/08/21 13:01:33;;;;;;;9.30;2.90;;;22.60;99.90;;;;;;5041555;28;20088;-53